sensor_id;sensor_type;location;lat;lon;timestamp;P1;durP1;ratioP1;P2;durP2;ratioP2
16468;SDS011;8345;50.902;6.956;2023-06-14T00:00:23;7.77;;;7.07;;
16468;SDS011;8345;50.902;6.956;2023-06-14T00:02:50;7.90;;;7.07;;
16468;SDS011;8345;50.902;6.956;2023-06-14T00:05:20;6.93;;;6.37;;
16468;SDS011;8345;50.902;6.956;2023-06-14T00:07:48;8.30;;;6.80;;
16468;SDS011;8345;50.902;6.956;2023-06-14T00:10:18;7.30;;;6.70;;
16468;SDS011;8345;50.902;6.956;2023-06-14T00:12:45;7.37;;;6.67;;
16468;SDS011;8345;50.902;6.956;2023-06-14T00:15:14;7.07;;;6.47;;
16468;SDS011;8345;50.902;6.956;2023-06-14T00:17:41;7.57;;;6.83;;
16468;SDS011;8345;50.902;6.956;2023-06-14T00:20:12;7.07;;;6.40;;
16468;SDS011;8345;50.902;6.956;2023-06-14T00:22:39;6.90;;;6.40;;
16468;SDS011;8345;50.902;6.956;2023-06-14T00:25:06;7.63;;;6.90;;
16468;SDS011;8345;50.902;6.956;2023-06-14T00:27:34;7.03;;;6.43;;
16468;SDS011;8345;50.902;6.956;2023-06-14T00:30:01;8.03;;;7.23;;
16468;SDS011;8345;50.902;6.956;2023-06-14T00:32:29;7.80;;;6.90;;
16468;SDS011;8345;50.902;6.956;2023-06-14T00:34:56;7.10;;;6.53;;
16468;SDS011;8345;50.902;6.956;2023-06-14T00:37:24;7.57;;;6.87;;
16468;SDS011;8345;50.902;6.956;2023-06-14T00:39:51;8.00;;;7.30;;
16468;SDS011;8345;50.902;6.956;2023-06-14T00:42:24;7.60;;;7.00;;
16468;SDS011;8345;50.902;6.956;2023-06-14T00:44:51;8.40;;;7.57;;
16468;SDS011;8345;50.902;6.956;2023-06-14T00:47:19;7.50;;;6.90;;
16468;SDS011;8345;50.902;6.956;2023-06-14T00:49:48;7.20;;;6.67;;
16468;SDS011;8345;50.902;6.956;2023-06-14T00:52:17;8.63;;;7.90;;
16468;SDS011;8345;50.902;6.956;2023-06-14T00:54:44;7.93;;;7.23;;
16468;SDS011;8345;50.902;6.956;2023-06-14T00:57:12;8.20;;;7.40;;
16468;SDS011;8345;50.902;6.956;2023-06-14T00:59:41;7.93;;;7.23;;
16468;SDS011;8345;50.902;6.956;2023-06-14T01:02:09;7.37;;;6.77;;
16468;SDS011;8345;50.902;6.956;2023-06-14T01:04:36;8.07;;;7.17;;
16468;SDS011;8345;50.902;6.956;2023-06-14T01:07:07;8.07;;;7.37;;
16468;SDS011;8345;50.902;6.956;2023-06-14T01:09:42;7.83;;;7.13;;
16468;SDS011;8345;50.902;6.956;2023-06-14T01:12:15;8.27;;;7.47;;
16468;SDS011;8345;50.902;6.956;2023-06-14T01:14:44;7.70;;;7.10;;
16468;SDS011;8345;50.902;6.956;2023-06-14T01:17:11;8.07;;;7.37;;
16468;SDS011;8345;50.902;6.956;2023-06-14T01:19:41;9.00;;;7.70;;
16468;SDS011;8345;50.902;6.956;2023-06-14T01:22:10;8.40;;;7.60;;
16468;SDS011;8345;50.902;6.956;2023-06-14T01:24:39;7.67;;;7.00;;
16468;SDS011;8345;50.902;6.956;2023-06-14T01:27:09;8.20;;;7.50;;
16468;SDS011;8345;50.902;6.956;2023-06-14T01:29:37;7.80;;;7.20;;
16468;SDS011;8345;50.902;6.956;2023-06-14T01:32:10;7.67;;;7.07;;
16468;SDS011;8345;50.902;6.956;2023-06-14T01:34:38;7.43;;;6.73;;
16468;SDS011;8345;50.902;6.956;2023-06-14T01:37:05;7.77;;;7.07;;
16468;SDS011;8345;50.902;6.956;2023-06-14T01:39:33;8.07;;;7.40;;
16468;SDS011;8345;50.902;6.956;2023-06-14T01:42:02;7.63;;;7.03;;
16468;SDS011;8345;50.902;6.956;2023-06-14T01:44:31;9.83;;;7.90;;
16468;SDS011;8345;50.902;6.956;2023-06-14T01:46:58;7.60;;;7.00;;
16468;SDS011;8345;50.902;6.956;2023-06-14T01:49:26;7.97;;;7.03;;
16468;SDS011;8345;50.902;6.956;2023-06-14T01:51:53;8.53;;;7.07;;
16468;SDS011;8345;50.902;6.956;2023-06-14T01:54:20;7.97;;;7.37;;
16468;SDS011;8345;50.902;6.956;2023-06-14T01:56:48;8.07;;;7.43;;
16468;SDS011;8345;50.902;6.956;2023-06-14T01:59:16;7.93;;;7.23;;
16468;SDS011;8345;50.902;6.956;2023-06-14T02:01:43;8.00;;;7.40;;
16468;SDS011;8345;50.902;6.956;2023-06-14T02:04:12;7.97;;;7.17;;
16468;SDS011;8345;50.902;6.956;2023-06-14T02:06:39;8.03;;;7.30;;
16468;SDS011;8345;50.902;6.956;2023-06-14T02:09:07;7.50;;;6.90;;
16468;SDS011;8345;50.902;6.956;2023-06-14T02:11:34;8.67;;;7.43;;
16468;SDS011;8345;50.902;6.956;2023-06-14T02:14:01;8.57;;;7.70;;
16468;SDS011;8345;50.902;6.956;2023-06-14T02:16:30;8.73;;;7.73;;
16468;SDS011;8345;50.902;6.956;2023-06-14T02:18:57;8.17;;;7.43;;
16468;SDS011;8345;50.902;6.956;2023-06-14T02:21:25;7.93;;;7.17;;
16468;SDS011;8345;50.902;6.956;2023-06-14T02:23:52;8.90;;;7.33;;
16468;SDS011;8345;50.902;6.956;2023-06-14T02:26:19;8.20;;;7.37;;
16468;SDS011;8345;50.902;6.956;2023-06-14T02:28:47;8.53;;;7.83;;
16468;SDS011;8345;50.902;6.956;2023-06-14T02:31:14;8.57;;;7.70;;
16468;SDS011;8345;50.902;6.956;2023-06-14T02:33:43;8.00;;;7.30;;
16468;SDS011;8345;50.902;6.956;2023-06-14T02:36:10;8.87;;;7.97;;
16468;SDS011;8345;50.902;6.956;2023-06-14T02:38:38;8.47;;;7.77;;
16468;SDS011;8345;50.902;6.956;2023-06-14T02:41:06;9.90;;;8.27;;
16468;SDS011;8345;50.902;6.956;2023-06-14T02:43:33;9.47;;;8.67;;
16468;SDS011;8345;50.902;6.956;2023-06-14T02:46:01;8.83;;;7.63;;
16468;SDS011;8345;50.902;6.956;2023-06-14T02:48:28;8.50;;;7.83;;
16468;SDS011;8345;50.902;6.956;2023-06-14T02:50:57;7.97;;;7.37;;
16468;SDS011;8345;50.902;6.956;2023-06-14T02:53:24;9.30;;;7.93;;
16468;SDS011;8345;50.902;6.956;2023-06-14T02:55:52;8.27;;;7.57;;
16468;SDS011;8345;50.902;6.956;2023-06-14T02:58:20;8.07;;;7.30;;
16468;SDS011;8345;50.902;6.956;2023-06-14T03:00:50;8.93;;;8.10;;
16468;SDS011;8345;50.902;6.956;2023-06-14T03:03:18;8.00;;;7.40;;
16468;SDS011;8345;50.902;6.956;2023-06-14T03:05:47;8.67;;;7.87;;
16468;SDS011;8345;50.902;6.956;2023-06-14T03:08:16;8.43;;;7.73;;
16468;SDS011;8345;50.902;6.956;2023-06-14T03:10:45;8.63;;;7.93;;
16468;SDS011;8345;50.902;6.956;2023-06-14T03:13:12;8.53;;;7.70;;
16468;SDS011;8345;50.902;6.956;2023-06-14T03:15:41;8.37;;;7.57;;
16468;SDS011;8345;50.902;6.956;2023-06-14T03:18:08;9.07;;;8.27;;
16468;SDS011;8345;50.902;6.956;2023-06-14T03:20:35;8.57;;;7.67;;
16468;SDS011;8345;50.902;6.956;2023-06-14T03:23:02;8.50;;;7.73;;
16468;SDS011;8345;50.902;6.956;2023-06-14T03:25:32;8.90;;;8.10;;
16468;SDS011;8345;50.902;6.956;2023-06-14T03:28:00;8.97;;;8.10;;
16468;SDS011;8345;50.902;6.956;2023-06-14T03:30:28;8.00;;;7.40;;
16468;SDS011;8345;50.902;6.956;2023-06-14T03:32:55;9.73;;;8.30;;
16468;SDS011;8345;50.902;6.956;2023-06-14T03:35:22;11.03;;;8.33;;
16468;SDS011;8345;50.902;6.956;2023-06-14T03:37:49;9.03;;;8.17;;
16468;SDS011;8345;50.902;6.956;2023-06-14T03:40:17;8.97;;;8.17;;
16468;SDS011;8345;50.902;6.956;2023-06-14T03:42:46;9.70;;;8.20;;
16468;SDS011;8345;50.902;6.956;2023-06-14T03:45:13;8.90;;;8.10;;
16468;SDS011;8345;50.902;6.956;2023-06-14T03:47:40;8.73;;;8.03;;
16468;SDS011;8345;50.902;6.956;2023-06-14T03:50:08;8.70;;;7.90;;
16468;SDS011;8345;50.902;6.956;2023-06-14T03:52:36;9.07;;;8.20;;
16468;SDS011;8345;50.902;6.956;2023-06-14T03:55:03;9.17;;;7.60;;
16468;SDS011;8345;50.902;6.956;2023-06-14T03:57:31;8.83;;;7.97;;
16468;SDS011;8345;50.902;6.956;2023-06-14T03:59:59;11.07;;;8.23;;
16468;SDS011;8345;50.902;6.956;2023-06-14T04:02:29;9.87;;;7.70;;
16468;SDS011;8345;50.902;6.956;2023-06-14T04:04:56;8.87;;;7.90;;
16468;SDS011;8345;50.902;6.956;2023-06-14T04:07:24;8.30;;;7.60;;
16468;SDS011;8345;50.902;6.956;2023-06-14T04:09:53;8.17;;;7.50;;
16468;SDS011;8345;50.902;6.956;2023-06-14T04:12:21;8.53;;;7.73;;
16468;SDS011;8345;50.902;6.956;2023-06-14T04:14:48;8.73;;;7.43;;
16468;SDS011;8345;50.902;6.956;2023-06-14T04:17:17;8.33;;;7.53;;
16468;SDS011;8345;50.902;6.956;2023-06-14T04:19:44;8.10;;;7.40;;
16468;SDS011;8345;50.902;6.956;2023-06-14T04:22:12;7.65;;;6.95;;
16468;SDS011;8345;50.902;6.956;2023-06-14T04:24:39;7.85;;;7.03;;
16468;SDS011;8345;50.902;6.956;2023-06-14T04:27:07;7.97;;;7.30;;
16468;SDS011;8345;50.902;6.956;2023-06-14T04:29:34;12.38;;;8.20;;
16468;SDS011;8345;50.902;6.956;2023-06-14T04:32:02;8.57;;;7.57;;
16468;SDS011;8345;50.902;6.956;2023-06-14T04:34:32;8.20;;;7.45;;
16468;SDS011;8345;50.902;6.956;2023-06-14T04:36:59;7.75;;;7.05;;
16468;SDS011;8345;50.902;6.956;2023-06-14T04:39:26;8.35;;;6.97;;
16468;SDS011;8345;50.902;6.956;2023-06-14T04:41:53;7.80;;;7.10;;
16468;SDS011;8345;50.902;6.956;2023-06-14T04:44:22;8.02;;;7.28;;
16468;SDS011;8345;50.902;6.956;2023-06-14T04:46:55;7.88;;;7.28;;
16468;SDS011;8345;50.902;6.956;2023-06-14T04:49:23;11.32;;;7.95;;
16468;SDS011;8345;50.902;6.956;2023-06-14T04:51:53;8.85;;;7.95;;
16468;SDS011;8345;50.902;6.956;2023-06-14T04:54:22;9.93;;;7.47;;
16468;SDS011;8345;50.902;6.956;2023-06-14T04:56:50;8.50;;;7.32;;
16468;SDS011;8345;50.902;6.956;2023-06-14T04:59:18;7.78;;;7.03;;
16468;SDS011;8345;50.902;6.956;2023-06-14T05:01:45;8.85;;;7.60;;
16468;SDS011;8345;50.902;6.956;2023-06-14T05:04:13;7.55;;;6.75;;
16468;SDS011;8345;50.902;6.956;2023-06-14T05:06:41;7.85;;;7.05;;
16468;SDS011;8345;50.902;6.956;2023-06-14T05:09:11;7.35;;;6.57;;
16468;SDS011;8345;50.902;6.956;2023-06-14T05:11:38;6.93;;;6.32;;
16468;SDS011;8345;50.902;6.956;2023-06-14T05:14:07;6.65;;;5.93;;
16468;SDS011;8345;50.902;6.956;2023-06-14T05:16:34;6.93;;;6.32;;
16468;SDS011;8345;50.902;6.956;2023-06-14T05:19:02;5.95;;;5.45;;
16468;SDS011;8345;50.902;6.956;2023-06-14T05:21:29;8.10;;;5.97;;
16468;SDS011;8345;50.902;6.956;2023-06-14T05:23:58;7.35;;;5.45;;
16468;SDS011;8345;50.902;6.956;2023-06-14T05:26:27;6.07;;;5.47;;
16468;SDS011;8345;50.902;6.956;2023-06-14T05:28:55;6.05;;;5.00;;
16468;SDS011;8345;50.902;6.956;2023-06-14T05:31:22;8.50;;;5.45;;
16468;SDS011;8345;50.902;6.956;2023-06-14T05:33:51;5.87;;;5.23;;
16468;SDS011;8345;50.902;6.956;2023-06-14T05:36:18;6.50;;;5.70;;
16468;SDS011;8345;50.902;6.956;2023-06-14T05:38:46;6.17;;;5.67;;
16468;SDS011;8345;50.902;6.956;2023-06-14T05:41:13;7.00;;;5.60;;
16468;SDS011;8345;50.902;6.956;2023-06-14T05:43:42;6.80;;;5.30;;
16468;SDS011;8345;50.902;6.956;2023-06-14T05:46:09;7.13;;;5.57;;
16468;SDS011;8345;50.902;6.956;2023-06-14T05:48:36;7.37;;;5.73;;
16468;SDS011;8345;50.902;6.956;2023-06-14T05:51:03;8.63;;;5.43;;
16468;SDS011;8345;50.902;6.956;2023-06-14T05:53:33;7.17;;;5.33;;
16468;SDS011;8345;50.902;6.956;2023-06-14T05:56:01;6.07;;;4.67;;
16468;SDS011;8345;50.902;6.956;2023-06-14T05:58:28;8.67;;;6.20;;
16468;SDS011;8345;50.902;6.956;2023-06-14T06:00:57;6.63;;;5.10;;
16468;SDS011;8345;50.902;6.956;2023-06-14T06:03:24;5.40;;;4.90;;
16468;SDS011;8345;50.902;6.956;2023-06-14T06:05:54;7.00;;;4.87;;
16468;SDS011;8345;50.902;6.956;2023-06-14T06:08:21;5.80;;;4.87;;
16468;SDS011;8345;50.902;6.956;2023-06-14T06:10:48;5.67;;;4.93;;
16468;SDS011;8345;50.902;6.956;2023-06-14T06:13:16;5.73;;;4.70;;
16468;SDS011;8345;50.902;6.956;2023-06-14T06:15:43;5.77;;;4.33;;
16468;SDS011;8345;50.902;6.956;2023-06-14T06:18:12;6.60;;;4.40;;
16468;SDS011;8345;50.902;6.956;2023-06-14T06:20:39;4.82;;;4.30;;
16468;SDS011;8345;50.902;6.956;2023-06-14T06:23:06;5.63;;;4.70;;
16468;SDS011;8345;50.902;6.956;2023-06-14T06:25:34;4.20;;;3.90;;
16468;SDS011;8345;50.902;6.956;2023-06-14T06:28:02;8.02;;;4.70;;
16468;SDS011;8345;50.902;6.956;2023-06-14T06:30:29;6.10;;;4.78;;
16468;SDS011;8345;50.902;6.956;2023-06-14T06:32:56;5.22;;;4.13;;
16468;SDS011;8345;50.902;6.956;2023-06-14T06:35:25;6.38;;;4.03;;
16468;SDS011;8345;50.902;6.956;2023-06-14T06:37:52;4.70;;;4.00;;
16468;SDS011;8345;50.902;6.956;2023-06-14T06:40:20;4.32;;;3.92;;
16468;SDS011;8345;50.902;6.956;2023-06-14T06:42:47;5.00;;;4.50;;
16468;SDS011;8345;50.902;6.956;2023-06-14T06:45:15;4.40;;;4.00;;
16468;SDS011;8345;50.902;6.956;2023-06-14T06:47:42;5.32;;;3.95;;
16468;SDS011;8345;50.902;6.956;2023-06-14T06:50:09;6.97;;;3.92;;
16468;SDS011;8345;50.902;6.956;2023-06-14T06:52:38;4.60;;;4.15;;
16468;SDS011;8345;50.902;6.956;2023-06-14T06:55:05;5.10;;;4.30;;
16468;SDS011;8345;50.902;6.956;2023-06-14T06:57:33;4.97;;;3.83;;
16468;SDS011;8345;50.902;6.956;2023-06-14T07:00:01;3.90;;;3.58;;
16468;SDS011;8345;50.902;6.956;2023-06-14T07:02:30;6.07;;;4.15;;
16468;SDS011;8345;50.902;6.956;2023-06-14T07:04:57;5.78;;;3.95;;
16468;SDS011;8345;50.902;6.956;2023-06-14T07:07:24;5.03;;;3.70;;
16468;SDS011;8345;50.902;6.956;2023-06-14T07:09:53;4.05;;;3.47;;
16468;SDS011;8345;50.902;6.956;2023-06-14T07:12:22;4.00;;;3.60;;
16468;SDS011;8345;50.902;6.956;2023-06-14T07:14:49;4.18;;;3.78;;
16468;SDS011;8345;50.902;6.956;2023-06-14T07:17:17;5.15;;;3.65;;
16468;SDS011;8345;50.902;6.956;2023-06-14T07:19:44;3.53;;;3.10;;
16468;SDS011;8345;50.902;6.956;2023-06-14T07:22:11;5.00;;;3.58;;
16468;SDS011;8345;50.902;6.956;2023-06-14T07:24:38;4.65;;;3.50;;
16468;SDS011;8345;50.902;6.956;2023-06-14T07:27:08;3.50;;;3.20;;
16468;SDS011;8345;50.902;6.956;2023-06-14T07:29:35;3.75;;;3.10;;
16468;SDS011;8345;50.902;6.956;2023-06-14T07:32:03;5.43;;;3.40;;
16468;SDS011;8345;50.902;6.956;2023-06-14T07:34:30;4.07;;;3.55;;
16468;SDS011;8345;50.902;6.956;2023-06-14T07:36:57;5.30;;;3.80;;
16468;SDS011;8345;50.902;6.956;2023-06-14T07:39:25;3.65;;;3.33;;
16468;SDS011;8345;50.902;6.956;2023-06-14T07:41:52;3.90;;;3.38;;
16468;SDS011;8345;50.902;6.956;2023-06-14T07:44:20;5.35;;;3.40;;
16468;SDS011;8345;50.902;6.956;2023-06-14T07:46:48;5.00;;;3.45;;
16468;SDS011;8345;50.902;6.956;2023-06-14T07:49:15;5.72;;;3.65;;
16468;SDS011;8345;50.902;6.956;2023-06-14T07:51:42;4.25;;;3.58;;
16468;SDS011;8345;50.902;6.956;2023-06-14T07:54:11;4.43;;;3.10;;
16468;SDS011;8345;50.902;6.956;2023-06-14T07:56:39;4.72;;;3.17;;
16468;SDS011;8345;50.902;6.956;2023-06-14T07:59:06;5.47;;;2.80;;
16468;SDS011;8345;50.902;6.956;2023-06-14T08:01:34;3.77;;;2.50;;
16468;SDS011;8345;50.902;6.956;2023-06-14T08:04:01;2.80;;;2.60;;
16468;SDS011;8345;50.902;6.956;2023-06-14T08:06:29;2.60;;;2.40;;
16468;SDS011;8345;50.902;6.956;2023-06-14T08:08:56;3.57;;;2.33;;
16468;SDS011;8345;50.902;6.956;2023-06-14T08:11:23;4.37;;;2.20;;
16468;SDS011;8345;50.902;6.956;2023-06-14T08:13:51;2.50;;;2.30;;
16468;SDS011;8345;50.902;6.956;2023-06-14T08:16:18;3.53;;;2.07;;
16468;SDS011;8345;50.902;6.956;2023-06-14T08:18:46;4.60;;;2.30;;
16468;SDS011;8345;50.902;6.956;2023-06-14T08:21:13;2.00;;;1.80;;
16468;SDS011;8345;50.902;6.956;2023-06-14T08:23:41;3.03;;;2.00;;
16468;SDS011;8345;50.902;6.956;2023-06-14T08:26:09;2.80;;;2.50;;
16468;SDS011;8345;50.902;6.956;2023-06-14T08:28:36;3.20;;;2.03;;
16468;SDS011;8345;50.902;6.956;2023-06-14T08:31:03;2.80;;;1.83;;
16468;SDS011;8345;50.902;6.956;2023-06-14T08:33:30;3.15;;;1.90;;
16468;SDS011;8345;50.902;6.956;2023-06-14T08:36:01;2.63;;;2.25;;
16468;SDS011;8345;50.902;6.956;2023-06-14T08:38:28;3.05;;;2.22;;
16468;SDS011;8345;50.902;6.956;2023-06-14T08:40:57;2.63;;;2.30;;
16468;SDS011;8345;50.902;6.956;2023-06-14T08:43:24;2.90;;;2.17;;
16468;SDS011;8345;50.902;6.956;2023-06-14T08:45:53;3.72;;;1.98;;
16468;SDS011;8345;50.902;6.956;2023-06-14T08:48:20;2.88;;;2.58;;
16468;SDS011;8345;50.902;6.956;2023-06-14T08:50:50;2.40;;;2.20;;
16468;SDS011;8345;50.902;6.956;2023-06-14T08:53:19;2.13;;;1.95;;
16468;SDS011;8345;50.902;6.956;2023-06-14T08:55:47;2.47;;;1.90;;
16468;SDS011;8345;50.902;6.956;2023-06-14T08:58:15;3.60;;;2.08;;
16468;SDS011;8345;50.902;6.956;2023-06-14T09:00:42;2.70;;;2.10;;
16468;SDS011;8345;50.902;6.956;2023-06-14T09:03:09;2.40;;;2.20;;
16468;SDS011;8345;50.902;6.956;2023-06-14T09:05:38;3.20;;;2.30;;
16468;SDS011;8345;50.902;6.956;2023-06-14T09:08:05;2.60;;;1.90;;
16468;SDS011;8345;50.902;6.956;2023-06-14T09:10:34;2.97;;;2.30;;
16468;SDS011;8345;50.902;6.956;2023-06-14T09:13:02;2.40;;;2.20;;
16468;SDS011;8345;50.902;6.956;2023-06-14T09:15:29;2.60;;;2.00;;
16468;SDS011;8345;50.902;6.956;2023-06-14T09:17:57;2.07;;;1.90;;
16468;SDS011;8345;50.902;6.956;2023-06-14T09:20:24;3.03;;;2.13;;
16468;SDS011;8345;50.902;6.956;2023-06-14T09:22:51;2.30;;;2.10;;
16468;SDS011;8345;50.902;6.956;2023-06-14T09:25:19;2.20;;;2.00;;
16468;SDS011;8345;50.902;6.956;2023-06-14T09:27:48;2.97;;;2.20;;
16468;SDS011;8345;50.902;6.956;2023-06-14T09:30:15;2.78;;;2.28;;
16468;SDS011;8345;50.902;6.956;2023-06-14T09:32:42;2.70;;;1.90;;
16468;SDS011;8345;50.902;6.956;2023-06-14T09:35:10;2.03;;;1.92;;
16468;SDS011;8345;50.902;6.956;2023-06-14T09:37:37;2.57;;;2.37;;
16468;SDS011;8345;50.902;6.956;2023-06-14T09:40:05;3.13;;;1.93;;
16468;SDS011;8345;50.902;6.956;2023-06-14T09:42:32;2.40;;;2.13;;
16468;SDS011;8345;50.902;6.956;2023-06-14T09:45:03;3.37;;;2.27;;
16468;SDS011;8345;50.902;6.956;2023-06-14T09:47:31;2.40;;;1.90;;
16468;SDS011;8345;50.902;6.956;2023-06-14T09:49:58;2.23;;;2.10;;
16468;SDS011;8345;50.902;6.956;2023-06-14T09:52:25;2.60;;;2.30;;
16468;SDS011;8345;50.902;6.956;2023-06-14T09:54:53;2.50;;;2.30;;
16468;SDS011;8345;50.902;6.956;2023-06-14T09:57:22;3.10;;;2.10;;
16468;SDS011;8345;50.902;6.956;2023-06-14T09:59:52;2.50;;;2.03;;
16468;SDS011;8345;50.902;6.956;2023-06-14T10:02:24;2.87;;;2.40;;
16468;SDS011;8345;50.902;6.956;2023-06-14T10:04:55;4.33;;;2.10;;
16468;SDS011;8345;50.902;6.956;2023-06-14T10:07:26;2.40;;;2.23;;
16468;SDS011;8345;50.902;6.956;2023-06-14T10:09:55;2.60;;;2.40;;
16468;SDS011;8345;50.902;6.956;2023-06-14T10:12:22;2.78;;;2.25;;
16468;SDS011;8345;50.902;6.956;2023-06-14T10:14:49;3.22;;;2.40;;
16468;SDS011;8345;50.902;6.956;2023-06-14T10:17:20;2.50;;;2.30;;
16468;SDS011;8345;50.902;6.956;2023-06-14T10:19:50;3.17;;;2.10;;
16468;SDS011;8345;50.902;6.956;2023-06-14T10:22:19;3.78;;;2.30;;
16468;SDS011;8345;50.902;6.956;2023-06-14T10:24:50;2.50;;;2.30;;
16468;SDS011;8345;50.902;6.956;2023-06-14T10:27:17;3.53;;;2.23;;
16468;SDS011;8345;50.902;6.956;2023-06-14T10:30:05;2.50;;;2.30;;
16468;SDS011;8345;50.902;6.956;2023-06-14T10:32:33;2.90;;;2.07;;
16468;SDS011;8345;50.902;6.956;2023-06-14T10:35:04;2.27;;;2.07;;
16468;SDS011;8345;50.902;6.956;2023-06-14T10:37:31;2.53;;;2.30;;
16468;SDS011;8345;50.902;6.956;2023-06-14T10:39:59;2.27;;;2.07;;
16468;SDS011;8345;50.902;6.956;2023-06-14T10:42:31;2.87;;;2.33;;
16468;SDS011;8345;50.902;6.956;2023-06-14T10:44:58;2.53;;;2.30;;
16468;SDS011;8345;50.902;6.956;2023-06-14T10:47:26;3.75;;;2.00;;
16468;SDS011;8345;50.902;6.956;2023-06-14T10:49:54;2.30;;;2.13;;
16468;SDS011;8345;50.902;6.956;2023-06-14T10:52:24;2.95;;;2.55;;
16468;SDS011;8345;50.902;6.956;2023-06-14T10:54:59;3.05;;;2.20;;
16468;SDS011;8345;50.902;6.956;2023-06-14T10:57:29;2.08;;;1.88;;
16468;SDS011;8345;50.902;6.956;2023-06-14T10:59:57;2.33;;;2.13;;
16468;SDS011;8345;50.902;6.956;2023-06-14T11:02:40;3.03;;;2.10;;
16468;SDS011;8345;50.902;6.956;2023-06-14T11:05:14;1.93;;;1.80;;
16468;SDS011;8345;50.902;6.956;2023-06-14T11:07:47;2.07;;;1.97;;
16468;SDS011;8345;50.902;6.956;2023-06-14T11:10:18;4.17;;;2.20;;
16468;SDS011;8345;50.902;6.956;2023-06-14T11:12:49;5.20;;;2.20;;
16468;SDS011;8345;50.902;6.956;2023-06-14T11:15:18;2.37;;;2.10;;
16468;SDS011;8345;50.902;6.956;2023-06-14T11:17:52;2.77;;;2.30;;
16468;SDS011;8345;50.902;6.956;2023-06-14T11:20:19;2.60;;;2.40;;
16468;SDS011;8345;50.902;6.956;2023-06-14T11:22:48;3.45;;;2.40;;
16468;SDS011;8345;50.902;6.956;2023-06-14T11:25:15;3.95;;;2.17;;
16468;SDS011;8345;50.902;6.956;2023-06-14T11:27:42;2.30;;;2.10;;
16468;SDS011;8345;50.902;6.956;2023-06-14T11:30:10;2.60;;;2.40;;
16468;SDS011;8345;50.902;6.956;2023-06-14T11:32:38;5.22;;;2.35;;
16468;SDS011;8345;50.902;6.956;2023-06-14T11:35:06;4.23;;;2.93;;
16468;SDS011;8345;50.902;6.956;2023-06-14T11:37:35;4.90;;;2.23;;
16468;SDS011;8345;50.902;6.956;2023-06-14T11:40:06;2.73;;;2.50;;
16468;SDS011;8345;50.902;6.956;2023-06-14T11:42:34;5.00;;;2.37;;
16468;SDS011;8345;50.902;6.956;2023-06-14T11:45:02;5.15;;;2.53;;
16468;SDS011;8345;50.902;6.956;2023-06-14T11:47:31;4.35;;;2.45;;
16468;SDS011;8345;50.902;6.956;2023-06-14T11:49:58;2.50;;;2.30;;
16468;SDS011;8345;50.902;6.956;2023-06-14T11:52:26;2.20;;;2.00;;
16468;SDS011;8345;50.902;6.956;2023-06-14T11:54:53;2.60;;;2.40;;
16468;SDS011;8345;50.902;6.956;2023-06-14T11:57:22;2.20;;;2.00;;
16468;SDS011;8345;50.902;6.956;2023-06-14T11:59:49;2.38;;;2.10;;
16468;SDS011;8345;50.902;6.956;2023-06-14T12:02:16;4.85;;;2.40;;
16468;SDS011;8345;50.902;6.956;2023-06-14T12:04:44;2.63;;;2.05;;
16468;SDS011;8345;50.902;6.956;2023-06-14T12:07:11;4.85;;;2.13;;
16468;SDS011;8345;50.902;6.956;2023-06-14T12:09:40;3.20;;;2.22;;
16468;SDS011;8345;50.902;6.956;2023-06-14T12:12:09;2.58;;;2.05;;
16468;SDS011;8345;50.902;6.956;2023-06-14T12:14:37;2.60;;;2.03;;
16468;SDS011;8345;50.902;6.956;2023-06-14T12:17:08;2.63;;;2.10;;
16468;SDS011;8345;50.902;6.956;2023-06-14T12:19:41;5.93;;;2.28;;
16468;SDS011;8345;50.902;6.956;2023-06-14T12:22:09;2.20;;;1.98;;
16468;SDS011;8345;50.902;6.956;2023-06-14T12:24:36;4.22;;;1.80;;
16468;SDS011;8345;50.902;6.956;2023-06-14T12:27:04;2.30;;;2.13;;
16468;SDS011;8345;50.902;6.956;2023-06-14T12:29:32;2.10;;;1.90;;
16468;SDS011;8345;50.902;6.956;2023-06-14T12:32:01;5.55;;;2.00;;
16468;SDS011;8345;50.902;6.956;2023-06-14T12:34:28;3.00;;;2.35;;
16468;SDS011;8345;50.902;6.956;2023-06-14T12:36:56;3.05;;;2.22;;
16468;SDS011;8345;50.902;6.956;2023-06-14T12:39:23;4.45;;;1.90;;
16468;SDS011;8345;50.902;6.956;2023-06-14T12:41:50;5.13;;;2.03;;
16468;SDS011;8345;50.902;6.956;2023-06-14T12:44:18;4.22;;;2.20;;
16468;SDS011;8345;50.902;6.956;2023-06-14T12:46:45;2.13;;;1.50;;
16468;SDS011;8345;50.902;6.956;2023-06-14T12:49:14;3.40;;;1.60;;
16468;SDS011;8345;50.902;6.956;2023-06-14T12:51:41;3.30;;;1.73;;
16468;SDS011;8345;50.902;6.956;2023-06-14T12:54:08;2.17;;;1.70;;
16468;SDS011;8345;50.902;6.956;2023-06-14T12:56:35;2.10;;;1.55;;
16468;SDS011;8345;50.902;6.956;2023-06-14T12:59:02;4.07;;;1.60;;
16468;SDS011;8345;50.902;6.956;2023-06-14T13:01:31;2.40;;;1.80;;
16468;SDS011;8345;50.902;6.956;2023-06-14T13:03:58;1.60;;;1.50;;
16468;SDS011;8345;50.902;6.956;2023-06-14T13:06:26;2.40;;;1.38;;
16468;SDS011;8345;50.902;6.956;2023-06-14T13:08:56;2.83;;;1.48;;
16468;SDS011;8345;50.902;6.956;2023-06-14T13:11:24;6.03;;;1.92;;
16468;SDS011;8345;50.902;6.956;2023-06-14T13:13:51;3.33;;;1.60;;
16468;SDS011;8345;50.902;6.956;2023-06-14T13:16:18;1.98;;;1.70;;
16468;SDS011;8345;50.902;6.956;2023-06-14T13:18:45;2.50;;;1.63;;
16468;SDS011;8345;50.902;6.956;2023-06-14T13:21:12;2.25;;;2.05;;
16468;SDS011;8345;50.902;6.956;2023-06-14T13:23:41;2.65;;;1.75;;
16468;SDS011;8345;50.902;6.956;2023-06-14T13:26:08;2.35;;;1.80;;
16468;SDS011;8345;50.902;6.956;2023-06-14T13:28:35;2.63;;;1.70;;
16468;SDS011;8345;50.902;6.956;2023-06-14T13:31:02;2.35;;;1.73;;
16468;SDS011;8345;50.902;6.956;2023-06-14T13:33:30;1.90;;;1.70;;
16468;SDS011;8345;50.902;6.956;2023-06-14T13:35:58;2.08;;;1.92;;
16468;SDS011;8345;50.902;6.956;2023-06-14T13:38:25;2.00;;;1.80;;
16468;SDS011;8345;50.902;6.956;2023-06-14T13:40:54;1.88;;;1.77;;
16468;SDS011;8345;50.902;6.956;2023-06-14T13:43:21;2.20;;;2.00;;
16468;SDS011;8345;50.902;6.956;2023-06-14T13:45:48;2.85;;;1.73;;
16468;SDS011;8345;50.902;6.956;2023-06-14T13:48:15;2.40;;;2.05;;
16468;SDS011;8345;50.902;6.956;2023-06-14T13:50:43;2.17;;;1.95;;
16468;SDS011;8345;50.902;6.956;2023-06-14T13:53:11;2.55;;;2.10;;
16468;SDS011;8345;50.902;6.956;2023-06-14T13:55:39;2.58;;;1.80;;
16468;SDS011;8345;50.902;6.956;2023-06-14T13:58:07;3.10;;;2.22;;
16468;SDS011;8345;50.902;6.956;2023-06-14T14:00:35;2.40;;;1.58;;
16468;SDS011;8345;50.902;6.956;2023-06-14T14:03:05;4.60;;;2.20;;
16468;SDS011;8345;50.902;6.956;2023-06-14T14:05:34;2.20;;;2.00;;
16468;SDS011;8345;50.902;6.956;2023-06-14T14:08:01;2.40;;;2.15;;
16468;SDS011;8345;50.902;6.956;2023-06-14T14:10:29;2.47;;;2.28;;
16468;SDS011;8345;50.902;6.956;2023-06-14T14:12:56;2.38;;;2.17;;
16468;SDS011;8345;50.902;6.956;2023-06-14T14:15:24;4.30;;;2.70;;
16468;SDS011;8345;50.902;6.956;2023-06-14T14:17:52;2.20;;;2.00;;
16468;SDS011;8345;50.902;6.956;2023-06-14T14:20:19;2.20;;;2.00;;
16468;SDS011;8345;50.902;6.956;2023-06-14T14:22:46;2.13;;;2.03;;
16468;SDS011;8345;50.902;6.956;2023-06-14T14:25:14;2.33;;;2.05;;
16468;SDS011;8345;50.902;6.956;2023-06-14T14:27:41;2.50;;;2.30;;
16468;SDS011;8345;50.902;6.956;2023-06-14T14:30:08;2.70;;;2.20;;
16468;SDS011;8345;50.902;6.956;2023-06-14T14:32:37;2.75;;;2.03;;
16468;SDS011;8345;50.902;6.956;2023-06-14T14:35:05;2.70;;;2.08;;
16468;SDS011;8345;50.902;6.956;2023-06-14T14:37:32;2.97;;;2.25;;
16468;SDS011;8345;50.902;6.956;2023-06-14T14:40:00;2.50;;;2.30;;
16468;SDS011;8345;50.902;6.956;2023-06-14T14:42:28;4.45;;;1.90;;
16468;SDS011;8345;50.902;6.956;2023-06-14T14:44:55;2.60;;;2.40;;
16468;SDS011;8345;50.902;6.956;2023-06-14T14:47:23;4.82;;;2.28;;
16468;SDS011;8345;50.902;6.956;2023-06-14T14:49:51;3.10;;;1.92;;
16468;SDS011;8345;50.902;6.956;2023-06-14T14:52:18;3.03;;;2.38;;
16468;SDS011;8345;50.902;6.956;2023-06-14T14:54:45;4.95;;;2.30;;
16468;SDS011;8345;50.902;6.956;2023-06-14T14:57:13;2.20;;;2.00;;
16468;SDS011;8345;50.902;6.956;2023-06-14T14:59:40;3.10;;;2.22;;
16468;SDS011;8345;50.902;6.956;2023-06-14T15:02:07;3.42;;;2.03;;
16468;SDS011;8345;50.902;6.956;2023-06-14T15:04:35;2.25;;;2.10;;